Главная страница
METAR-TAF:

METAR-TAF

Аэропорты :

Port Meadville Airport

Meadville, Пенсильвания, США

широта: 41-37-35N, долгота: 080-12-53W, высота над уровнем моря: 427 м

Текущие метеонаблюдения

Эта сводка был подготовлена 12 минут назад, в 22:53 UTC
Ветер 5 Узел от южный
Температура 6°C
Влажность 100%
Давление 1005 hPa
Видимость: 16.1 км
небольшая облачность на высоте 900 фута
Рассеянная облачность на высоте 1600 фута
Сплошная облачность на высоте 2600 фута
небольшой дождь

METAR: KGKJ 232253Z AUTO 17005KT 10SM -RA FEW009 BKN016 OVC026 06/06 A2968 RMK AO2 RAE02B06 SLP060 P0001 T00610061 TSNO

Время: 18:05 (23:05 UTC)


TAF: отсутствует

Метеонаблюдения и прогнозы для более 4000 аэропортов (сводки METAR и TAF).

Имеющиеся станции представлены на карте желтыми и красными точками.

Чтобы увидеть название станции, наведите на нее мышь.

Затем щелкните, чтобы увидеть метеонаблюдения и метеопрогнозы.

Управление картой: чтобы увеличить масштаб, щелкните зеленые кнопки с черным крестиком; чтобы уменьшить масштаб, щелкните зеленую кнопку с тире; для просмотра соседних карт щелкайте зеленые стрелки.


METAR-TAF: